Open Full Screen Window  High Contrast Mode
Wind Gusting 00 knots
04
July 30, 2014 3:01 AM EDT
Weather Information
Wind Direction
  240 °
Wind Speed
  04 kt (5 mph)
Wind Gust
  00 kt (0 mph)
Altimeter
30.06 in
Visibility
10 SM
Temperature
17° C
63° F
Dewpoint
13° C
55° F
Humidity
77%
1hr Rain Fall
00.00 in.
24hr Rain Fall
00.00 in.
Sky Condition
Scattered @ 7,000 ft
VFR

METAR KI69 300701Z AUTO 24004KT 10SM SCT070 17/13 A3006 RMK AO1

*Background is not an actual portrayal of the airport.